Letizia Effe — ICGF — position and weather

sailwx.info

Track history (hours):
 
Tides and Currents Weather Stations Pressure Air Temp Water Temp Dewpoint Dewpoint Depression Visibility Wind Speed Wind Dir Waves Ship Positions

Letizia Effe

Last reported at 2018-Jun-19 13:56 UTC. Time now 2018-Jun-19 14:21 UTC.
Position N 38°13' E 015°16'.

Length 150 m; draft 6.8 m.

Type: Ship. MMSI: 247237100.

Date/timePositionNaut miles runAvg speedWind from/ knotsBaromVisibWave heightAir tempDewpointWater temp
2018-Jun-19 13:56N 38°13' E 015°16'0 0.0
2018-Jun-19 12:50N 38°13' E 015°16'0 0.0
2018-Jun-19 12:26N 38°13' E 015°16'0 0.0
2018-Jun-19 11:57N 38°13' E 015°16'0 0.0
2018-Jun-19 11:26N 38°13' E 015°16'0 0.0
2018-Jun-19 10:56N 38°13' E 015°16'0 0.0
2018-Jun-19 10:26N 38°13' E 015°16'0 0.2
2018-Jun-19 09:50N 38°13' E 015°16'2 5.6
2018-Jun-19 09:30N 38°14' E 015°18'1 1.5
2018-Jun-19 08:56N 38°13' E 015°19'0 0.0
2018-Jun-19 08:26N 38°13' E 015°19'0 0.0
2018-Jun-19 07:56N 38°13' E 015°19'0 0.1
2018-Jun-19 07:26N 38°13' E 015°19'1 1.2
2018-Jun-19 07:00N 38°14' E 015°19'5 9.7
2018-Jun-19 06:30N 38°18' E 015°23'613.0
2018-Jun-19 06:00N 38°21' E 015°30'611.8
2018-Jun-19 05:30N 38°21' E 015°38'6 9.3
2018-Jun-19 04:48N 38°15' E 015°40'310.5
2018-Jun-19 04:30N 38°13' E 015°37'710.9
2018-Jun-19 03:51N 38°06' E 015°36'512.7
2018-Jun-19 03:29N 38°02' E 015°35'1812.3
2018-Jun-19 02:00N 37°43' E 015°33'111 9.8
2018-Jun-18 14:39N 35°57' E 014°52'0 0.1
2018-Jun-18 14:27N 35°57' E 014°52'0 0.0
2018-Jun-18 14:00N 35°57' E 014°52'0 0.0
2018-Jun-18 13:09N 35°57' E 014°52'0 0.0
2018-Jun-18 13:00N 35°57' E 014°52'0 0.0
2018-Jun-18 12:27N 35°57' E 014°52'0 0.0
2018-Jun-18 11:54N 35°57' E 014°52'0 0.0
2018-Jun-18 11:21N 35°57' E 014°52'0 0.0
2018-Jun-18 10:54N 35°57' E 014°52'0 0.0
2018-Jun-18 10:27N 35°57' E 014°52'0 0.0
2018-Jun-18 09:57N 35°57' E 014°52'  
2018-Jun-10 10:07N 34°43' E 033°19'0 0.0
2018-Jun-10 09:56N 34°43' E 033°19'0 0.0
2018-Jun-10 09:12N 34°43' E 033°19'  
Track history (hours):
 
Tides and Currents Weather Stations Pressure Air Temp Water Temp Dewpoint Dewpoint Depression Visibility Wind Speed Wind Dir Waves Ship Positions

Letizia Effe

Last reported at 2018-Jun-19 13:56 UTC. Time now 2018-Jun-19 14:21 UTC.
Position N 38°13' E 015°16'.

Length 150 m; draft 6.8 m.

Type: Ship. MMSI: 247237100.

Date/timePositionNaut miles runAvg speedWind from/ knotsBaromVisibWave heightAir tempDewpointWater temp
2018-Jun-19 13:56N 38°13' E 015°16'0 0.0
2018-Jun-19 12:50N 38°13' E 015°16'0 0.0
2018-Jun-19 12:26N 38°13' E 015°16'0 0.0
2018-Jun-19 11:57N 38°13' E 015°16'0 0.0
2018-Jun-19 11:26N 38°13' E 015°16'0 0.0
2018-Jun-19 10:56N 38°13' E 015°16'0 0.0
2018-Jun-19 10:26N 38°13' E 015°16'0 0.2
2018-Jun-19 09:50N 38°13' E 015°16'2 5.6
2018-Jun-19 09:30N 38°14' E 015°18'1 1.5
2018-Jun-19 08:56N 38°13' E 015°19'0 0.0
2018-Jun-19 08:26N 38°13' E 015°19'0 0.0
2018-Jun-19 07:56N 38°13' E 015°19'0 0.1
2018-Jun-19 07:26N 38°13' E 015°19'1 1.2
2018-Jun-19 07:00N 38°14' E 015°19'5 9.7
2018-Jun-19 06:30N 38°18' E 015°23'613.0
2018-Jun-19 06:00N 38°21' E 015°30'611.8
2018-Jun-19 05:30N 38°21' E 015°38'6 9.3
2018-Jun-19 04:48N 38°15' E 015°40'310.5
2018-Jun-19 04:30N 38°13' E 015°37'710.9
2018-Jun-19 03:51N 38°06' E 015°36'512.7
2018-Jun-19 03:29N 38°02' E 015°35'1812.3
2018-Jun-19 02:00N 37°43' E 015°33'111 9.8
2018-Jun-18 14:39N 35°57' E 014°52'0 0.1
2018-Jun-18 14:27N 35°57' E 014°52'0 0.0
2018-Jun-18 14:00N 35°57' E 014°52'0 0.0
2018-Jun-18 13:09N 35°57' E 014°52'0 0.0
2018-Jun-18 13:00N 35°57' E 014°52'0 0.0
2018-Jun-18 12:27N 35°57' E 014°52'0 0.0
2018-Jun-18 11:54N 35°57' E 014°52'0 0.0
2018-Jun-18 11:21N 35°57' E 014°52'0 0.0
2018-Jun-18 10:54N 35°57' E 014°52'0 0.0
2018-Jun-18 10:27N 35°57' E 014°52'0 0.0
2018-Jun-18 09:57N 35°57' E 014°52'  
2018-Jun-10 10:07N 34°43' E 033°19'0 0.0
2018-Jun-10 09:56N 34°43' E 033°19'0 0.0
2018-Jun-10 09:12N 34°43' E 033°19'  

Dump ship's entire track history